Time;durP1;ratioP1;P1;durP2;ratioP2;P2;SDS_P1;SDS_P2;PMS_P1;PMS_P2;Temp;Humidity;BMP_temperature;BMP_pressure;BME280_temperature;BME280_humidity;BME280_pressure;Samples;Min_cycle;Max_cycle;Signal;HPM_P1;HPM_P2
2023/03/27 00:00:15;;;;;;;0.00;0.00;;;11.30;61.20;;;;;;5973710;29;20264;-69
2023/03/27 00:03:16;;;;;;;0.00;0.00;;;11.30;61.20;;;;;;5959242;29;20071;-69
2023/03/27 00:06:19;;;;;;;1.85;0.03;;;11.30;60.90;;;;;;5973354;29;20556;-69
2023/03/27 00:09:20;;;;;;;0.32;0.15;;;11.30;61.00;;;;;;5959462;29;20023;-68
2023/03/27 00:12:21;;;;;;;0.13;0.10;;;11.20;60.70;;;;;;5959259;29;20061;-69
2023/03/27 00:15:22;;;;;;;0.10;0.10;;;11.20;60.70;;;;;;6000546;29;20042;-69
2023/03/27 00:18:24;;;;;;;0.13;0.10;;;11.20;60.60;;;;;;5981696;29;20030;-69
2023/03/27 00:21:25;;;;;;;0.10;0.10;;;11.30;60.60;;;;;;6011185;29;20035;-69
2023/03/27 00:24:27;;;;;;;0.10;0.10;;;11.30;60.50;;;;;;6010804;29;20125;-68
2023/03/27 00:27:28;;;;;;;0.35;0.20;;;11.30;60.70;;;;;;5980171;29;20053;-68
2023/03/27 00:30:30;;;;;;;0.20;0.20;;;11.30;60.70;;;;;;5981442;29;20030;-69
2023/03/27 00:33:30;;;;;;;1.90;0.20;;;11.30;60.80;;;;;;6010502;29;20444;-70
2023/03/27 00:36:32;;;;;;;0.10;0.10;;;11.30;61.00;;;;;;6025565;29;20038;-69
2023/03/27 00:39:34;;;;;;;0.10;0.10;;;11.40;61.20;;;;;;5984543;29;20039;-69
2023/03/27 00:42:35;;;;;;;0.35;0.20;;;11.40;61.40;;;;;;5979557;29;20503;-68
2023/03/27 00:45:36;;;;;;;0.17;0.10;;;11.40;61.40;;;;;;5972530;29;20137;-69
2023/03/27 00:48:37;;;;;;;1.75;0.20;;;11.40;61.40;;;;;;5960183;29;20031;-69
2023/03/27 00:51:41;;;;;;;0.10;0.10;;;11.40;61.40;;;;;;5976818;29;20018;-69
2023/03/27 00:54:43;;;;;;;0.57;0.30;;;11.50;61.40;;;;;;5962814;29;20111;-69
2023/03/27 00:57:48;;;;;;;0.32;0.13;;;11.50;61.30;;;;;;5961484;29;20172;-68
2023/03/27 01:00:53;;;;;;;0.35;0.15;;;11.50;61.30;;;;;;5991632;29;20035;-68
2023/03/27 01:04:00;;;;;;;0.13;0.13;;;11.50;61.30;;;;;;5961738;29;20155;-68
2023/03/27 01:07:04;;;;;;;0.50;0.45;;;11.50;61.20;;;;;;5961465;29;20042;-69
2023/03/27 01:10:07;;;;;;;0.10;0.10;;;11.60;61.10;;;;;;5992589;29;20048;-69
2023/03/27 01:13:14;;;;;;;0.40;0.28;;;11.60;61.00;;;;;;6014495;29;20031;-69
2023/03/27 01:16:26;;;;;;;0.32;0.20;;;11.60;60.80;;;;;;6014315;29;20030;-68
2023/03/27 01:19:48;;;;;;;0.15;0.15;;;11.70;60.70;;;;;;6013665;29;20054;-69
2023/03/27 01:23:24;;;;;;;1.17;0.22;;;11.60;60.50;;;;;;5991405;29;20153;-70
2023/03/27 01:26:50;;;;;;;0.20;0.20;;;11.60;60.60;;;;;;5991316;29;20520;-70
2023/03/27 01:30:23;;;;;;;0.10;0.10;;;11.50;60.70;;;;;;5990860;29;20045;-70
2023/03/27 01:33:29;;;;;;;6.35;0.45;;;11.50;61.10;;;;;;5962096;29;20067;-69
2023/03/27 01:36:46;;;;;;;1.58;0.25;;;11.40;61.10;;;;;;6021264;29;20033;-68
2023/03/27 01:39:49;;;;;;;0.75;0.35;;;11.40;61.30;;;;;;5984447;29;20051;-69
2023/03/27 01:43:06;;;;;;;2.67;0.47;;;11.40;61.30;;;;;;5982588;29;20125;-70
2023/03/27 01:46:26;;;;;;;0.63;0.25;;;11.40;61.30;;;;;;6013510;29;20042;-68
2023/03/27 01:49:31;;;;;;;0.63;0.30;;;11.50;61.30;;;;;;5984025;29;20030;-68
2023/03/27 01:52:38;;;;;;;0.80;0.20;;;11.50;61.10;;;;;;6013742;29;20030;-68
2023/03/27 01:55:44;;;;;;;0.32;0.28;;;11.40;61.00;;;;;;5984509;29;20030;-69
2023/03/27 01:58:48;;;;;;;0.85;0.38;;;11.50;61.20;;;;;;5997582;29;20037;-70
2023/03/27 02:02:04;;;;;;;0.55;0.30;;;11.50;61.30;;;;;;6012599;29;20145;-69
2023/03/27 02:05:11;;;;;;;0.20;0.20;;;11.40;61.30;;;;;;5984484;29;20030;-69
2023/03/27 02:08:25;;;;;;;0.15;0.10;;;11.40;61.40;;;;;;5970864;29;20088;-69
2023/03/27 02:11:39;;;;;;;0.10;0.10;;;11.40;61.80;;;;;;5994888;29;20054;-68
2023/03/27 02:14:51;;;;;;;0.10;0.10;;;11.30;62.40;;;;;;5977517;29;20042;-69
2023/03/27 02:18:08;;;;;;;0.10;0.10;;;11.30;63.10;;;;;;5992755;29;20450;-69
2023/03/27 02:21:10;;;;;;;0.00;0.00;;;11.20;63.50;;;;;;5959201;29;20140;-68
2023/03/27 02:24:11;;;;;;;0.17;0.10;;;11.20;64.00;;;;;;5990040;29;20079;-68
2023/03/27 02:27:46;;;;;;;0.05;0.05;;;11.10;64.40;;;;;;5974405;29;20027;-69
2023/03/27 02:31:00;;;;;;;0.10;0.10;;;10.90;64.90;;;;;;5959051;29;20039;-69
2023/03/27 02:34:27;;;;;;;0.00;0.00;;;10.90;65.20;;;;;;5990706;29;20607;-69
2023/03/27 02:37:41;;;;;;;0.00;0.00;;;10.80;65.20;;;;;;5997244;29;20107;-69
2023/03/27 02:41:04;;;;;;;0.15;0.03;;;10.70;65.00;;;;;;6005328;29;20087;-68
2023/03/27 02:44:36;;;;;;;0.00;0.00;;;10.60;64.70;;;;;;5982267;29;20069;-69
2023/03/27 02:47:44;;;;;;;0.13;0.00;;;10.60;64.50;;;;;;5981583;29;20030;-69
2023/03/27 02:50:55;;;;;;;0.00;0.00;;;10.50;64.30;;;;;;6012338;29;20027;-68
2023/03/27 02:54:08;;;;;;;0.00;0.00;;;10.50;64.20;;;;;;5982897;29;20535;-70
2023/03/27 02:57:14;;;;;;;0.00;0.00;;;10.50;64.20;;;;;;6012029;29;20113;-69
2023/03/27 03:00:46;;;;;;;0.00;0.00;;;10.40;64.20;;;;;;5983289;29;20034;-69
2023/03/27 03:04:15;;;;;;;0.00;0.00;;;10.30;64.30;;;;;;6012450;29;20038;-69
2023/03/27 03:07:39;;;;;;;0.00;0.00;;;10.20;64.20;;;;;;5946848;29;20233;-69
2023/03/27 03:10:44;;;;;;;0.00;0.00;;;10.10;64.30;;;;;;5934742;29;20117;-68
2023/03/27 03:13:47;;;;;;;0.00;0.00;;;10.10;64.50;;;;;;5934590;30;20556;-69
2023/03/27 03:16:48;;;;;;;0.00;0.00;;;10.10;64.70;;;;;;5934832;30;20035;-68
2023/03/27 03:19:49;;;;;;;0.03;0.03;;;10.10;64.80;;;;;;5934406;30;20481;-70
2023/03/27 03:22:50;;;;;;;0.00;0.00;;;10.20;64.80;;;;;;5934748;29;20501;-68
2023/03/27 03:25:55;;;;;;;0.00;0.00;;;10.30;64.80;;;;;;5934335;29;20130;-68
2023/03/27 03:28:57;;;;;;;0.00;0.00;;;10.30;64.50;;;;;;5934186;30;20130;-68
2023/03/27 03:32:00;;;;;;;0.00;0.00;;;10.40;64.50;;;;;;5934272;30;20035;-69
2023/03/27 03:35:01;;;;;;;0.10;0.10;;;10.50;64.40;;;;;;5937643;29;20023;-69
2023/03/27 03:38:07;;;;;;;0.00;0.00;;;10.50;64.40;;;;;;5947927;29;20062;-69
2023/03/27 03:41:17;;;;;;;0.00;0.00;;;10.60;64.60;;;;;;5919187;30;20587;-68
2023/03/27 03:44:18;;;;;;;0.08;0.03;;;10.60;64.50;;;;;;5956998;29;20042;-68
2023/03/27 03:47:19;;;;;;;0.05;0.03;;;10.60;64.40;;;;;;6011268;29;20045;-68
2023/03/27 03:50:20;;;;;;;1.20;0.32;;;10.60;64.50;;;;;;6011097;29;20030;-69
2023/03/27 03:53:22;;;;;;;0.17;0.10;;;10.60;64.60;;;;;;5982392;29;20132;-69
2023/03/27 03:56:24;;;;;;;0.00;0.00;;;10.60;64.70;;;;;;6011018;29;20102;-69
2023/03/27 03:59:26;;;;;;;0.25;0.25;;;10.60;64.70;;;;;;6009987;29;20435;-69
2023/03/27 04:02:49;;;;;;;0.40;0.30;;;10.70;65.00;;;;;;5982078;29;20129;-69
2023/03/27 04:05:51;;;;;;;0.75;0.28;;;10.70;65.20;;;;;;5995529;29;20029;-71
2023/03/27 04:08:52;;;;;;;0.25;0.25;;;10.80;65.30;;;;;;6010731;29;20484;-69
2023/03/27 04:12:26;;;;;;;0.65;0.30;;;10.80;65.30;;;;;;5991523;29;20134;-70
2023/03/27 04:15:33;;;;;;;0.80;0.43;;;10.90;65.50;;;;;;6010733;29;20456;-69
2023/03/27 04:18:39;;;;;;;1.38;0.32;;;10.90;65.60;;;;;;5981731;29;20049;-69
2023/03/27 04:21:43;;;;;;;0.40;0.40;;;11.00;65.70;;;;;;5979845;29;20031;-69
2023/03/27 04:24:44;;;;;;;0.50;0.40;;;11.00;65.70;;;;;;6010410;29;20034;-69
2023/03/27 04:27:51;;;;;;;0.50;0.30;;;11.00;65.70;;;;;;5994823;29;20099;-71
2023/03/27 04:30:57;;;;;;;0.28;0.28;;;11.00;65.70;;;;;;5981600;29;20550;-70
2023/03/27 04:34:24;;;;;;;0.20;0.20;;;11.10;65.80;;;;;;5981799;29;20091;-69
2023/03/27 04:38:00;;;;;;;0.88;0.30;;;11.10;65.80;;;;;;5925004;29;20047;-70
2023/03/27 04:41:12;;;;;;;0.57;0.30;;;11.10;65.70;;;;;;5936916;29;20397;-70
2023/03/27 04:44:13;;;;;;;1.05;0.20;;;11.20;65.80;;;;;;5918016;30;20114;-68
2023/03/27 04:47:15;;;;;;;0.88;0.20;;;11.20;65.80;;;;;;5933040;30;20044;-68
2023/03/27 04:50:18;;;;;;;0.95;0.52;;;11.10;65.80;;;;;;5917489;30;20042;-69
2023/03/27 04:53:19;;;;;;;1.67;0.30;;;11.20;65.90;;;;;;5902716;30;20485;-70
2023/03/27 04:56:21;;;;;;;0.20;0.20;;;11.20;65.90;;;;;;5916943;30;20378;-69
2023/03/27 04:59:23;;;;;;;0.40;0.40;;;11.10;66.00;;;;;;5917319;30;20043;-71
2023/03/27 05:02:53;;;;;;;0.98;0.90;;;11.10;66.20;;;;;;5932459;30;20127;-70
2023/03/27 05:06:08;;;;;;;5.30;0.73;;;11.10;66.20;;;;;;5919245;30;20047;-68
2023/03/27 05:09:11;;;;;;;0.47;0.35;;;11.20;66.30;;;;;;5932791;30;20051;-69
2023/03/27 05:12:12;;;;;;;0.75;0.50;;;11.20;66.30;;;;;;5937382;29;20035;-69
2023/03/27 05:15:21;;;;;;;3.00;0.73;;;11.20;66.20;;;;;;5976960;29;20030;-69
2023/03/27 05:18:23;;;;;;;0.32;0.32;;;11.30;66.00;;;;;;5989872;29;20063;-70
2023/03/27 05:21:25;;;;;;;1.40;0.75;;;11.30;65.80;;;;;;5958750;29;20093;-69
2023/03/27 05:24:26;;;;;;;0.70;0.30;;;11.30;65.70;;;;;;5957445;29;20039;-69
2023/03/27 05:27:27;;;;;;;5.93;0.77;;;11.30;65.50;;;;;;5971774;29;20210;-68
2023/03/27 05:30:30;;;;;;;0.63;0.60;;;11.30;65.30;;;;;;5957038;29;20125;-71
2023/03/27 05:33:48;;;;;;;1.58;1.00;;;11.20;65.10;;;;;;5958449;29;20105;-70
2023/03/27 05:36:50;;;;;;;1.75;0.60;;;11.30;65.00;;;;;;6026995;29;20037;-70
2023/03/27 05:39:51;;;;;;;0.82;0.55;;;11.30;64.70;;;;;;5985738;29;20037;-70
2023/03/27 05:42:54;;;;;;;1.02;0.68;;;11.30;64.50;;;;;;5984290;29;20034;-71
2023/03/27 05:45:56;;;;;;;0.50;0.50;;;11.40;64.40;;;;;;6014669;29;20041;-69
2023/03/27 05:49:01;;;;;;;0.40;0.40;;;11.40;64.20;;;;;;5984093;29;20500;-71
2023/03/27 05:52:02;;;;;;;1.23;0.60;;;11.50;64.00;;;;;;6000149;29;20106;-71
2023/03/27 05:55:05;;;;;;;0.43;0.43;;;11.50;63.90;;;;;;6000870;29;20495;-71
2023/03/27 05:58:10;;;;;;;0.30;0.30;;;11.50;64.00;;;;;;5985005;29;20034;-72
2023/03/27 06:01:12;;;;;;;0.45;0.45;;;11.50;64.10;;;;;;5984259;29;20117;-72
2023/03/27 06:04:18;;;;;;;0.73;0.50;;;11.50;64.20;;;;;;6000222;29;20091;-72
2023/03/27 06:07:33;;;;;;;0.82;0.50;;;11.60;64.20;;;;;;5985082;29;20138;-72
2023/03/27 06:10:42;;;;;;;1.30;0.40;;;11.60;64.20;;;;;;6003311;29;20027;-72
2023/03/27 06:14:05;;;;;;;0.65;0.55;;;11.70;64.10;;;;;;6007918;29;20038;-71
2023/03/27 06:17:22;;;;;;;3.60;0.60;;;11.70;64.10;;;;;;6000475;29;20135;-72
2023/03/27 06:20:29;;;;;;;1.75;0.95;;;11.60;64.30;;;;;;5984000;29;20034;-72
2023/03/27 06:23:31;;;;;;;4.20;1.38;;;11.50;64.30;;;;;;5997660;29;20046;-72
2023/03/27 06:26:32;;;;;;;2.15;1.13;;;11.50;64.60;;;;;;5997568;29;20367;-72
2023/03/27 06:29:36;;;;;;;1.55;1.10;;;11.60;64.90;;;;;;5996943;29;20364;-72
2023/03/27 06:32:58;;;;;;;2.22;1.60;;;11.60;65.10;;;;;;6012991;29;20039;-71
2023/03/27 06:36:00;;;;;;;3.28;1.25;;;11.60;65.30;;;;;;5994312;29;20115;-71
2023/03/27 06:39:05;;;;;;;2.35;1.50;;;11.60;65.40;;;;;;6020738;29;20038;-71
2023/03/27 06:42:07;;;;;;;4.22;1.50;;;11.60;65.50;;;;;;5967318;29;20121;-73
2023/03/27 06:45:18;;;;;;;2.00;1.65;;;11.50;65.60;;;;;;5975323;29;20687;-73
2023/03/27 06:48:46;;;;;;;2.35;1.40;;;11.50;65.80;;;;;;5973485;29;20038;-71
2023/03/27 06:51:47;;;;;;;1.23;0.75;;;11.60;65.70;;;;;;6012992;29;20038;-71
2023/03/27 06:54:49;;;;;;;10.18;1.25;;;11.60;65.70;;;;;;6012804;29;20130;-73
2023/03/27 06:57:53;;;;;;;1.90;1.30;;;11.60;65.60;;;;;;6012595;29;20401;-72
2023/03/27 07:00:54;;;;;;;1.98;1.38;;;11.60;65.60;;;;;;6013184;29;20034;-74
2023/03/27 07:03:55;;;;;;;1.85;1.38;;;11.60;65.60;;;;;;5982855;29;20071;-72
2023/03/27 07:07:16;;;;;;;1.90;0.90;;;11.60;65.50;;;;;;6006871;29;20370;-72
2023/03/27 07:10:18;;;;;;;1.75;0.77;;;11.70;65.70;;;;;;5996744;29;20143;-73
2023/03/27 07:13:19;;;;;;;1.20;0.90;;;11.70;65.60;;;;;;5996543;29;20041;-71
2023/03/27 07:16:22;;;;;;;1.85;1.10;;;11.70;65.40;;;;;;5981942;29;20199;-74
2023/03/27 07:19:23;;;;;;;3.28;1.30;;;11.70;65.30;;;;;;6012234;29;20467;-73
2023/03/27 07:22:33;;;;;;;2.28;1.35;;;11.70;65.30;;;;;;5996057;29;20034;-73
2023/03/27 07:25:40;;;;;;;2.00;1.33;;;11.80;65.30;;;;;;5981972;29;20489;-73
2023/03/27 07:28:45;;;;;;;2.72;1.70;;;11.80;65.20;;;;;;6012161;29;20026;-72
2023/03/27 07:31:46;;;;;;;3.20;1.67;;;11.90;65.20;;;;;;6012790;29;20034;-71
2023/03/27 07:34:47;;;;;;;2.15;1.60;;;12.00;65.10;;;;;;5983723;29;20081;-72
2023/03/27 07:37:55;;;;;;;3.75;2.33;;;12.10;65.00;;;;;;5998416;29;20451;-72
2023/03/27 07:41:19;;;;;;;2.30;1.58;;;12.10;64.90;;;;;;5956358;29;20388;-71
2023/03/27 07:44:41;;;;;;;3.10;1.75;;;12.20;64.90;;;;;;5952814;29;20099;-73
2023/03/27 07:47:44;;;;;;;2.08;1.50;;;12.20;64.90;;;;;;5956153;29;20409;-72
2023/03/27 07:50:46;;;;;;;1.92;1.27;;;12.10;64.70;;;;;;5957327;29;20039;-71
2023/03/27 07:53:55;;;;;;;2.15;1.20;;;12.00;64.90;;;;;;5957239;29;20098;-71
2023/03/27 07:57:05;;;;;;;1.40;1.10;;;12.00;65.20;;;;;;5956340;29;20041;-71
2023/03/27 08:00:26;;;;;;;3.03;1.10;;;11.90;65.20;;;;;;5956561;29;20137;-72
2023/03/27 08:03:39;;;;;;;1.58;0.90;;;11.90;64.90;;;;;;5957420;29;20034;-73
2023/03/27 08:06:43;;;;;;;4.40;2.50;;;11.90;65.10;;;;;;5961413;29;20031;-72
2023/03/27 08:09:56;;;;;;;1.58;0.88;;;11.90;65.10;;;;;;5959344;29;20778;-70
2023/03/27 08:13:00;;;;;;;1.50;1.05;;;11.80;65.20;;;;;;5959287;29;20342;-73
2023/03/27 08:16:09;;;;;;;1.80;0.98;;;11.80;65.30;;;;;;5957671;29;20031;-72
2023/03/27 08:19:10;;;;;;;1.73;0.90;;;11.70;65.50;;;;;;5943824;29;20134;-74
2023/03/27 08:22:17;;;;;;;2.13;1.17;;;11.70;65.40;;;;;;5959049;29;20038;-74
2023/03/27 08:25:41;;;;;;;1.48;0.93;;;11.60;65.30;;;;;;6001905;29;20530;-74
2023/03/27 08:28:43;;;;;;;2.53;0.82;;;11.60;65.40;;;;;;6001433;29;20026;-75
2023/03/27 08:31:44;;;;;;;4.97;1.38;;;11.50;65.30;;;;;;6001618;29;20057;-72
2023/03/27 08:34:45;;;;;;;3.08;1.08;;;11.50;65.30;;;;;;6005505;29;20041;-72
2023/03/27 08:37:52;;;;;;;1.77;1.02;;;11.50;65.30;;;;;;6011447;29;21078;-71
2023/03/27 08:41:06;;;;;;;2.20;0.98;;;11.50;65.10;;;;;;6024877;29;20030;-72
2023/03/27 08:44:18;;;;;;;4.25;2.03;;;11.60;64.70;;;;;;6024107;29;20116;-71
2023/03/27 08:47:39;;;;;;;4.20;1.63;;;11.70;64.30;;;;;;6009651;29;20025;-71
2023/03/27 08:50:58;;;;;;;1.73;1.10;;;11.80;64.00;;;;;;6022616;29;20042;-73
2023/03/27 08:54:07;;;;;;;2.22;1.08;;;11.80;63.50;;;;;;6023431;29;20512;-71
2023/03/27 08:57:23;;;;;;;0.80;0.50;;;11.90;63.20;;;;;;6023285;29;20109;-72
2023/03/27 09:00:36;;;;;;;2.55;1.15;;;12.00;62.80;;;;;;6023418;29;20051;-70
2023/03/27 09:04:06;;;;;;;4.38;1.80;;;12.20;62.60;;;;;;5981033;29;20034;-71
2023/03/27 09:07:30;;;;;;;3.03;1.60;;;12.40;62.30;;;;;;5995455;29;20487;-71
2023/03/27 09:11:08;;;;;;;4.78;1.75;;;12.50;61.30;;;;;;5984367;29;20474;-71
2023/03/27 09:14:32;;;;;;;1.77;1.30;;;12.60;61.20;;;;;;6014800;29;20504;-73
2023/03/27 09:17:40;;;;;;;3.78;1.55;;;12.80;60.40;;;;;;5983294;29;20130;-70
2023/03/27 09:20:54;;;;;;;7.07;1.95;;;12.90;59.90;;;;;;6014798;29;20073;-72
2023/03/27 09:24:00;;;;;;;4.45;1.75;;;13.00;59.60;;;;;;6014482;29;20026;-71
2023/03/27 09:27:31;;;;;;;3.17;1.73;;;13.00;59.40;;;;;;6014562;29;20031;-73
2023/03/27 09:31:27;;;;;;;3.03;1.63;;;13.10;59.20;;;;;;5937436;30;20043;-72
2023/03/27 09:34:33;;;;;;;1.30;1.10;;;13.10;58.70;;;;;;5937067;29;20042;-72
2023/03/27 09:37:35;;;;;;;3.53;1.38;;;13.20;58.10;;;;;;5915443;30;20078;-73
2023/03/27 09:40:43;;;;;;;2.00;1.40;;;13.20;57.70;;;;;;5915713;30;20070;-71
2023/03/27 09:43:55;;;;;;;2.83;1.40;;;13.20;57.50;;;;;;5938464;30;20028;-76
2023/03/27 09:47:18;;;;;;;2.72;1.58;;;13.20;57.50;;;;;;5923323;30;20162;-72
2023/03/27 09:50:29;;;;;;;3.85;1.90;;;13.10;56.50;;;;;;5921801;30;20477;-72
2023/03/27 09:53:57;;;;;;;2.38;1.35;;;13.00;56.10;;;;;;5921892;30;20059;-71
2023/03/27 09:57:11;;;;;;;5.00;1.67;;;13.00;56.10;;;;;;5921410;30;20100;-73
2023/03/27 10:00:26;;;;;;;3.50;1.52;;;13.00;55.80;;;;;;5921286;30;20111;-73
2023/03/27 10:03:37;;;;;;;8.27;1.80;;;13.00;55.80;;;;;;5921301;29;20107;-72
2023/03/27 10:06:47;;;;;;;4.88;1.83;;;13.10;55.70;;;;;;5926319;29;20046;-72
2023/03/27 10:10:10;;;;;;;3.60;1.35;;;13.10;55.60;;;;;;5990654;29;20035;-71
2023/03/27 10:13:30;;;;;;;7.20;2.25;;;13.20;55.50;;;;;;5990585;29;20027;-73
2023/03/27 10:16:41;;;;;;;3.42;1.70;;;13.30;55.10;;;;;;5975507;29;20418;-71
2023/03/27 10:19:44;;;;;;;6.97;1.70;;;13.50;54.90;;;;;;5990809;29;20121;-73
2023/03/27 10:22:53;;;;;;;2.40;1.73;;;13.60;54.40;;;;;;5989679;29;20125;-72
2023/03/27 10:26:00;;;;;;;2.95;1.48;;;13.80;53.90;;;;;;5991122;29;20426;-72
2023/03/27 10:29:24;;;;;;;3.53;1.75;;;13.80;53.70;;;;;;5991310;29;20030;-72
2023/03/27 10:32:44;;;;;;;1.65;1.38;;;14.00;53.40;;;;;;5992227;29;20369;-72
2023/03/27 10:36:07;;;;;;;3.95;1.98;;;14.00;53.10;;;;;;5987442;29;20037;-75
2023/03/27 10:39:12;;;;;;;7.13;2.85;;;14.00;53.00;;;;;;6022513;29;20037;-73
2023/03/27 10:42:36;;;;;;;4.05;2.13;;;13.90;52.50;;;;;;5984030;29;20046;-73
2023/03/27 10:45:50;;;;;;;3.75;1.60;;;14.10;52.30;;;;;;6014715;29;20468;-74
2023/03/27 10:49:24;;;;;;;3.40;1.85;;;14.20;52.00;;;;;;5985784;29;20336;-74
2023/03/27 10:52:51;;;;;;;6.90;1.88;;;14.50;51.70;;;;;;5983422;29;20432;-73
2023/03/27 10:56:36;;;;;;;7.15;2.20;;;14.80;50.70;;;;;;6013597;29;20558;-73
2023/03/27 10:59:43;;;;;;;8.63;1.90;;;15.30;50.20;;;;;;5997821;29;20038;-71
2023/03/27 11:03:20;;;;;;;5.35;2.50;;;15.40;49.50;;;;;;5984432;29;20417;-74
2023/03/27 11:06:31;;;;;;;3.95;2.47;;;15.50;49.10;;;;;;6014817;29;20042;-72
2023/03/27 11:10:03;;;;;;;4.90;2.10;;;15.50;49.00;;;;;;5998918;29;20053;-72
2023/03/27 11:13:17;;;;;;;6.57;1.95;;;15.70;48.70;;;;;;5981986;29;20171;-74
2023/03/27 11:16:39;;;;;;;4.43;1.55;;;15.40;48.90;;;;;;6013049;29;20069;-73
2023/03/27 11:19:59;;;;;;;4.82;1.55;;;15.00;49.10;;;;;;5983360;29;20053;-72
2023/03/27 11:23:44;;;;;;;8.25;1.85;;;14.50;50.00;;;;;;5978100;29;20042;-72
2023/03/27 11:27:27;;;;;;;3.20;1.92;;;14.20;50.60;;;;;;5984161;29;20049;-73
2023/03/27 11:30:36;;;;;;;2.92;1.40;;;14.00;51.20;;;;;;5961752;29;20130;-72
2023/03/27 11:33:48;;;;;;;5.07;2.45;;;14.10;51.30;;;;;;5989387;29;20475;-71
2023/03/27 11:36:55;;;;;;;7.28;2.60;;;14.00;50.90;;;;;;5995495;29;20026;-72
2023/03/27 11:40:23;;;;;;;5.45;1.70;;;13.90;50.90;;;;;;5981672;29;20152;-72
2023/03/27 11:43:32;;;;;;;2.63;1.70;;;13.80;51.30;;;;;;5981387;29;20107;-73
2023/03/27 11:46:52;;;;;;;7.60;1.60;;;13.70;51.30;;;;;;5983037;29;20031;-71
2023/03/27 11:50:13;;;;;;;6.30;1.90;;;13.70;51.40;;;;;;5981010;29;20030;-71
2023/03/27 11:53:18;;;;;;;4.05;1.75;;;13.70;51.30;;;;;;6011892;29;20472;-74
2023/03/27 11:56:53;;;;;;;4.47;2.42;;;13.80;51.10;;;;;;5979107;29;20050;-70
2023/03/27 12:00:31;;;;;;;8.23;1.33;;;13.60;50.70;;;;;;5981265;29;20456;-73
2023/03/27 12:04:03;;;;;;;3.35;1.27;;;13.40;50.70;;;;;;5981327;29;20440;-72
2023/03/27 12:07:52;;;;;;;3.03;1.30;;;13.20;50.70;;;;;;6012095;29;20037;-73
2023/03/27 12:10:57;;;;;;;6.15;1.17;;;13.10;50.80;;;;;;5982808;29;20106;-74
2023/03/27 12:14:24;;;;;;;5.32;1.65;;;13.20;51.00;;;;;;5981283;29;20098;-70
2023/03/27 12:17:47;;;;;;;1.63;1.23;;;13.20;50.60;;;;;;5982311;29;20043;-71
2023/03/27 12:21:01;;;;;;;1.75;1.40;;;13.10;50.50;;;;;;5981077;29;20034;-72
2023/03/27 12:24:11;;;;;;;3.13;1.45;;;13.00;50.60;;;;;;5981358;29;20452;-71
2023/03/27 12:27:52;;;;;;;2.92;1.52;;;13.00;50.70;;;;;;5933638;30;20087;-74
2023/03/27 12:31:12;;;;;;;4.55;1.40;;;13.00;50.40;;;;;;5919024;30;20035;-72
2023/03/27 12:34:49;;;;;;;4.20;1.50;;;13.10;50.10;;;;;;5918997;30;20465;-74
2023/03/27 12:38:10;;;;;;;4.43;1.73;;;13.60;49.90;;;;;;5939703;29;20109;-72
2023/03/27 12:41:23;;;;;;;7.30;1.83;;;14.60;47.80;;;;;;5936850;29;20075;-71
2023/03/27 12:45:01;;;;;;;9.30;2.13;;;15.40;46.30;;;;;;5919954;30;20401;-73
2023/03/27 12:48:08;;;;;;;8.13;2.17;;;16.80;44.70;;;;;;5938036;30;20448;-73
2023/03/27 12:51:18;;;;;;;2.92;1.52;;;17.60;42.30;;;;;;5938331;29;20043;-73
2023/03/27 12:54:27;;;;;;;3.70;1.50;;;18.00;40.60;;;;;;5938071;29;20043;-72
2023/03/27 12:57:43;;;;;;;5.72;1.85;;;18.00;40.40;;;;;;5923564;30;20830;-71
2023/03/27 13:00:58;;;;;;;6.75;1.65;;;17.80;41.00;;;;;;5938204;29;20508;-73
2023/03/27 13:04:10;;;;;;;7.60;2.03;;;17.80;40.80;;;;;;5959400;29;20046;-71
2023/03/27 13:07:18;;;;;;;3.70;1.23;;;18.20;40.20;;;;;;5992094;29;20080;-71
2023/03/27 13:10:57;;;;;;;6.97;1.60;;;18.40;39.50;;;;;;5992342;29;20114;-71
2023/03/27 13:14:04;;;;;;;8.32;2.00;;;18.80;38.80;;;;;;5977097;29;20039;-73
2023/03/27 13:17:29;;;;;;;3.55;1.45;;;19.80;36.60;;;;;;5994101;29;20207;-72
2023/03/27 13:20:44;;;;;;;6.03;1.35;;;20.20;35.10;;;;;;5982478;29;20046;-71
2023/03/27 13:23:45;;;;;;;4.32;1.73;;;20.70;34.30;;;;;;5963082;29;20042;-74
2023/03/27 13:27:29;;;;;;;3.30;1.80;;;20.90;33.80;;;;;;5959310;29;20027;-74
2023/03/27 13:30:47;;;;;;;7.32;1.35;;;20.80;33.50;;;;;;5944625;29;20786;-71
2023/03/27 13:34:26;;;;;;;5.70;1.38;;;20.60;33.30;;;;;;5958504;29;20091;-70
2023/03/27 13:37:30;;;;;;;8.13;1.50;;;20.90;32.90;;;;;;5943724;29;20146;-72
2023/03/27 13:40:39;;;;;;;3.22;1.20;;;21.40;31.00;;;;;;5944268;29;20492;-70
2023/03/27 13:43:45;;;;;;;4.28;1.38;;;21.70;30.80;;;;;;5958733;29;20042;-72
2023/03/27 13:47:32;;;;;;;4.20;1.83;;;21.80;31.00;;;;;;5981167;29;20035;-73
2023/03/27 13:50:46;;;;;;;4.07;1.25;;;20.90;31.20;;;;;;5966349;29;20042;-72
2023/03/27 13:53:50;;;;;;;4.90;1.17;;;20.00;32.30;;;;;;5981501;29;20036;-71
2023/03/27 13:57:22;;;;;;;3.28;1.38;;;19.20;33.20;;;;;;5971469;29;20933;-72
2023/03/27 14:01:15;;;;;;;10.82;1.45;;;18.50;34.10;;;;;;5974139;29;20691;-72
2023/03/27 14:04:32;;;;;;;8.70;1.30;;;17.90;35.20;;;;;;5981897;29;20043;-71
2023/03/27 14:07:40;;;;;;;4.40;1.20;;;17.40;35.80;;;;;;5986351;29;20042;-70
2023/03/27 14:11:01;;;;;;;3.65;1.33;;;16.90;36.20;;;;;;5985142;29;20030;-71
2023/03/27 14:14:21;;;;;;;3.90;1.30;;;16.50;36.90;;;;;;5981479;29;20147;-71
2023/03/27 14:18:09;;;;;;;3.25;1.23;;;16.20;37.70;;;;;;5980744;29;20026;-72
2023/03/27 14:21:17;;;;;;;3.45;1.15;;;15.90;38.30;;;;;;5932032;30;20043;-71
2023/03/27 14:24:42;;;;;;;3.85;1.27;;;15.70;38.70;;;;;;5935898;30;20042;-72
2023/03/27 14:27:54;;;;;;;6.57;1.70;;;15.60;38.90;;;;;;5935181;30;20122;-72
2023/03/27 14:31:01;;;;;;;4.55;1.15;;;15.50;39.20;;;;;;5936247;30;20100;-72
2023/03/27 14:34:29;;;;;;;1.70;1.02;;;15.50;39.30;;;;;;5935686;29;20098;-73
2023/03/27 14:37:40;;;;;;;7.20;1.38;;;15.40;39.40;;;;;;5955333;29;20065;-74
2023/03/27 14:41:05;;;;;;;4.43;1.08;;;15.30;39.50;;;;;;5973498;29;20114;-72
2023/03/27 14:44:22;;;;;;;3.28;1.55;;;15.10;39.80;;;;;;5982153;29;20033;-72
2023/03/27 14:47:23;;;;;;;3.58;1.55;;;15.10;39.90;;;;;;5983685;29;20448;-73
2023/03/27 14:50:26;;;;;;;3.33;1.60;;;15.30;40.00;;;;;;5982199;29;20023;-73
2023/03/27 14:53:42;;;;;;;2.95;1.23;;;15.20;39.80;;;;;;6012895;29;20337;-72
2023/03/27 14:57:12;;;;;;;7.82;1.15;;;15.20;39.60;;;;;;5935197;29;20150;-72
2023/03/27 15:00:25;;;;;;;6.00;1.02;;;15.30;39.30;;;;;;5935531;29;20043;-71
2023/03/27 15:03:34;;;;;;;3.97;1.52;;;15.40;39.20;;;;;;5935444;30;20035;-72
2023/03/27 15:06:37;;;;;;;3.47;1.50;;;15.50;39.00;;;;;;5935195;29;20035;-73
2023/03/27 15:09:40;;;;;;;5.35;1.55;;;15.50;39.60;;;;;;5935115;30;20031;-71
2023/03/27 15:13:01;;;;;;;9.27;1.30;;;15.50;39.00;;;;;;5932459;29;20031;-72
2023/03/27 15:16:05;;;;;;;2.10;1.08;;;15.40;38.70;;;;;;5934573;29;20095;-72
2023/03/27 15:19:11;;;;;;;4.22;0.95;;;15.40;38.40;;;;;;5919734;30;20034;-73
2023/03/27 15:22:21;;;;;;;6.40;1.25;;;15.20;38.30;;;;;;5920072;30;20051;-72
2023/03/27 15:25:30;;;;;;;2.90;0.90;;;15.20;38.60;;;;;;5934727;30;20179;-73
2023/03/27 15:28:39;;;;;;;6.90;1.88;;;15.10;38.70;;;;;;5934682;30;20546;-70
2023/03/27 15:31:42;;;;;;;2.58;1.00;;;14.90;38.80;;;;;;5920011;30;20441;-72
2023/03/27 15:34:56;;;;;;;2.55;0.95;;;14.90;38.80;;;;;;5974190;29;20043;-70
2023/03/27 15:37:58;;;;;;;1.70;1.10;;;14.80;38.80;;;;;;5997750;29;20053;-72
2023/03/27 15:41:08;;;;;;;4.30;1.48;;;14.70;38.70;;;;;;5981527;29;20061;-72
2023/03/27 15:44:15;;;;;;;5.00;1.25;;;14.60;38.80;;;;;;5980020;29;20623;-73
2023/03/27 15:47:24;;;;;;;20.48;1.48;;;14.50;39.00;;;;;;5981491;29;20031;-70
2023/03/27 15:50:26;;;;;;;3.25;1.10;;;14.40;39.00;;;;;;6011738;29;20041;-71
2023/03/27 15:53:35;;;;;;;6.35;1.17;;;14.30;39.30;;;;;;6012664;29;20445;-71
2023/03/27 15:56:42;;;;;;;1.50;0.85;;;14.30;39.50;;;;;;5994388;29;20095;-71
2023/03/27 15:59:43;;;;;;;4.15;1.25;;;14.30;39.40;;;;;;5983697;29;20121;-71
2023/03/27 16:02:47;;;;;;;3.70;1.25;;;14.20;39.40;;;;;;5982228;29;20438;-72
2023/03/27 16:05:56;;;;;;;3.13;1.33;;;14.20;39.40;;;;;;5982062;29;20429;-71
2023/03/27 16:08:58;;;;;;;6.93;1.27;;;14.10;39.40;;;;;;5981335;29;20030;-71
2023/03/27 16:12:00;;;;;;;4.10;1.02;;;14.00;39.50;;;;;;5995946;29;20053;-72
2023/03/27 16:15:01;;;;;;;3.60;1.40;;;13.90;39.60;;;;;;6011240;29;20455;-71
2023/03/27 16:18:12;;;;;;;3.40;1.00;;;13.70;39.50;;;;;;5980660;29;20041;-74
2023/03/27 16:21:13;;;;;;;10.43;1.30;;;13.70;39.80;;;;;;6011243;29;20034;-75
2023/03/27 16:24:14;;;;;;;4.80;0.82;;;13.60;39.80;;;;;;5981483;29;20065;-72
2023/03/27 16:27:18;;;;;;;5.00;0.90;;;13.60;39.90;;;;;;5994778;29;20456;-71
2023/03/27 16:30:40;;;;;;;2.00;0.75;;;13.60;39.90;;;;;;6010407;29;20034;-73
2023/03/27 16:33:43;;;;;;;3.45;1.00;;;13.50;39.80;;;;;;5981656;29;20069;-73
2023/03/27 16:36:44;;;;;;;3.63;1.00;;;13.40;39.80;;;;;;6027417;29;20042;-73